Time;durP1;ratioP1;P1;durP2;ratioP2;P2;SDS_P1;SDS_P2;PMS_P1;PMS_P2;Temp;Humidity;BMP_temperature;BMP_pressure;BME280_temperature;BME280_humidity;BME280_pressure;Samples;Min_cycle;Max_cycle;Signal;HPM_P1;HPM_P2
2021/01/21 00:00:35;;;;;;;25.60;12.52;;;;;;;;;;5092289;28;20019;-72
2021/01/21 00:03:01;;;;;;;26.65;12.30;;;;;;;;;;5093019;28;20099;-71
2021/01/21 00:05:27;;;;;;;23.35;13.45;;;;;;;;;;5094345;28;20020;-73
2021/01/21 00:07:53;;;;;;;19.63;11.95;;;;;;;;;;5093045;28;20020;-71
2021/01/21 00:10:19;;;;;;;36.42;18.92;;;;;;;;;;5094493;28;20021;-71
2021/01/21 00:12:45;;;;;;;27.35;16.67;;;;;;;;;;5093142;28;20028;-72
2021/01/21 00:15:11;;;;;;;22.65;13.70;;;;;;;;;;5094121;28;20016;-71
2021/01/21 00:17:38;;;;;;;21.33;12.45;;;;;;;;;;5094384;28;20119;-71
2021/01/21 00:20:05;;;;;;;31.80;16.00;;;;;;;;;;5092603;28;20024;-70
2021/01/21 00:22:31;;;;;;;28.83;12.63;;;;;;;;;;5092520;28;20052;-71
2021/01/21 00:24:57;;;;;;;30.20;15.85;;;;;;;;;;5092897;28;20024;-73
2021/01/21 00:27:23;;;;;;;32.50;17.00;;;;;;;;;;5093049;28;20035;-71
2021/01/21 00:29:49;;;;;;;31.45;16.80;;;;;;;;;;5092728;28;20027;-72
2021/01/21 00:32:15;;;;;;;30.92;15.95;;;;;;;;;;5094456;28;20072;-71
2021/01/21 00:34:41;;;;;;;32.75;15.70;;;;;;;;;;5092993;28;20039;-70
2021/01/21 00:37:07;;;;;;;27.33;15.02;;;;;;;;;;5097825;28;20028;-71
2021/01/21 00:39:33;;;;;;;23.88;13.48;;;;;;;;;;5097115;28;20099;-70
2021/01/21 00:41:59;;;;;;;22.73;12.60;;;;;;;;;;5097668;28;20020;-69
2021/01/21 00:44:25;;;;;;;19.67;11.30;;;;;;;;;;5095727;28;20398;-70
2021/01/21 00:46:51;;;;;;;27.55;14.15;;;;;;;;;;5095748;28;20107;-69
2021/01/21 00:49:18;;;;;;;22.98;12.70;;;;;;;;;;5095908;28;20020;-69
2021/01/21 00:51:44;;;;;;;21.65;10.70;;;;;;;;;;5096756;28;20016;-70
2021/01/21 00:54:10;;;;;;;25.02;14.85;;;;;;;;;;5095776;28;20410;-72
2021/01/21 00:56:36;;;;;;;30.40;16.17;;;;;;;;;;5096485;28;20073;-72
2021/01/21 00:59:02;;;;;;;31.35;16.73;;;;;;;;;;5095737;28;20020;-72
2021/01/21 01:01:28;;;;;;;26.13;16.02;;;;;;;;;;5095403;28;20369;-72
2021/01/21 01:03:54;;;;;;;31.17;17.45;;;;;;;;;;5096608;28;20020;-72
2021/01/21 01:06:21;;;;;;;62.25;25.63;;;;;;;;;;5096774;28;20027;-71
2021/01/21 01:08:47;;;;;;;56.53;26.15;;;;;;;;;;5096837;28;20020;-72
2021/01/21 01:11:13;;;;;;;52.60;24.63;;;;;;;;;;5094813;28;20023;-72
2021/01/21 01:13:39;;;;;;;33.80;18.17;;;;;;;;;;5095303;28;20464;-71
2021/01/21 01:16:05;;;;;;;26.60;16.05;;;;;;;;;;5095385;28;20016;-71
2021/01/21 01:18:32;;;;;;;22.20;13.00;;;;;;;;;;5094937;28;20016;-72
2021/01/21 01:20:58;;;;;;;26.63;13.07;;;;;;;;;;5096308;28;20400;-71
2021/01/21 01:23:24;;;;;;;23.05;12.10;;;;;;;;;;5096223;28;20031;-72
2021/01/21 01:25:53;;;;;;;27.80;12.82;;;;;;;;;;5094814;28;20020;-69
2021/01/21 01:28:19;;;;;;;20.42;10.52;;;;;;;;;;5096359;28;20058;-71
2021/01/21 01:30:45;;;;;;;18.35;10.75;;;;;;;;;;5096166;28;20040;-69
2021/01/21 01:33:11;;;;;;;20.17;10.45;;;;;;;;;;5096096;28;20035;-70
2021/01/21 01:35:37;;;;;;;22.58;11.45;;;;;;;;;;5094943;28;20342;-71
2021/01/21 01:38:03;;;;;;;32.33;14.85;;;;;;;;;;5096481;28;20504;-70
2021/01/21 01:40:30;;;;;;;36.95;16.90;;;;;;;;;;5094524;28;20016;-71
2021/01/21 01:42:56;;;;;;;46.55;19.33;;;;;;;;;;5095848;28;20084;-68
2021/01/21 01:45:22;;;;;;;54.73;23.17;;;;;;;;;;5095482;28;20070;-72
2021/01/21 01:47:48;;;;;;;60.97;24.65;;;;;;;;;;5094003;28;20057;-71
2021/01/21 01:50:15;;;;;;;48.08;21.40;;;;;;;;;;5095869;28;20361;-68
2021/01/21 01:52:42;;;;;;;42.30;16.90;;;;;;;;;;5095711;28;20031;-71
2021/01/21 01:55:17;;;;;;;44.95;18.35;;;;;;;;;;5095975;28;20039;-71
2021/01/21 01:57:44;;;;;;;46.22;18.65;;;;;;;;;;5095221;28;20047;-71
2021/01/21 02:00:10;;;;;;;38.13;18.98;;;;;;;;;;5094298;28;20024;-72
2021/01/21 02:02:36;;;;;;;35.95;16.65;;;;;;;;;;5095996;28;20055;-70
2021/01/21 02:05:03;;;;;;;32.70;15.40;;;;;;;;;;5095343;28;20360;-71
2021/01/21 02:07:29;;;;;;;40.60;17.95;;;;;;;;;;5095292;28;20026;-71
2021/01/21 02:09:56;;;;;;;37.63;16.33;;;;;;;;;;5095129;28;20024;-70
2021/01/21 02:12:22;;;;;;;31.30;14.02;;;;;;;;;;5095348;28;20032;-69
2021/01/21 02:14:51;;;;;;;31.95;16.45;;;;;;;;;;5095332;28;20028;-70
2021/01/21 02:17:24;;;;;;;32.47;15.90;;;;;;;;;;5094401;28;20069;-70
2021/01/21 02:20:11;;;;;;;27.85;13.68;;;;;;;;;;5095605;28;20024;-70
2021/01/21 02:22:52;;;;;;;24.57;11.77;;;;;;;;;;5095079;28;20050;-69
2021/01/21 02:25:22;;;;;;;24.77;12.68;;;;;;;;;;5095492;28;20302;-70
2021/01/21 02:27:57;;;;;;;24.65;11.95;;;;;;;;;;5094512;28;20641;-70
2021/01/21 02:30:33;;;;;;;21.70;11.18;;;;;;;;;;5094979;28;20060;-68
2021/01/21 02:33:08;;;;;;;22.17;11.40;;;;;;;;;;5094258;28;20024;-70
2021/01/21 02:35:34;;;;;;;23.40;12.73;;;;;;;;;;5093602;28;20361;-69
2021/01/21 02:38:01;;;;;;;24.98;12.65;;;;;;;;;;5094850;28;20012;-72
2021/01/21 02:40:27;;;;;;;25.17;11.50;;;;;;;;;;5094885;28;20024;-70
2021/01/21 02:42:53;;;;;;;24.20;12.73;;;;;;;;;;5094491;28;20024;-70
2021/01/21 02:45:19;;;;;;;28.70;14.35;;;;;;;;;;5094917;28;20024;-69
2021/01/21 02:47:46;;;;;;;29.30;13.93;;;;;;;;;;5094865;28;20027;-70
2021/01/21 02:50:12;;;;;;;29.20;14.10;;;;;;;;;;5093197;28;20072;-68
2021/01/21 02:52:38;;;;;;;29.23;15.07;;;;;;;;;;5094899;28;20410;-70
2021/01/21 02:55:10;;;;;;;26.85;13.35;;;;;;;;;;5093407;28;20016;-70
2021/01/21 02:57:43;;;;;;;30.55;14.50;;;;;;;;;;5092800;28;20453;-69
2021/01/21 03:00:10;;;;;;;27.05;13.65;;;;;;;;;;5094127;28;20024;-69
2021/01/21 03:02:36;;;;;;;;;;;;;;;;;;5093455;28;20024;-71
2021/01/21 03:05:03;;;;;;;33.88;16.23;;;;;;;;;;5093240;28;19906;-69
2021/01/21 03:07:30;;;;;;;33.00;16.05;;;;;;;;;;5093055;28;20020;-70
2021/01/21 03:09:56;;;;;;;31.25;14.15;;;;;;;;;;5092884;28;20027;-69
2021/01/21 03:12:23;;;;;;;33.92;17.13;;;;;;;;;;5093087;28;20024;-73
2021/01/21 03:14:50;;;;;;;32.60;17.02;;;;;;;;;;5094554;28;20066;-70
2021/01/21 03:17:17;;;;;;;34.97;19.35;;;;;;;;;;5094189;28;20024;-69
2021/01/21 03:19:43;;;;;;;34.85;17.52;;;;;;;;;;5092723;28;20028;-70
2021/01/21 03:22:09;;;;;;;38.85;19.88;;;;;;;;;;5093160;28;20380;-70
2021/01/21 03:24:35;;;;;;;73.78;34.88;;;;;;;;;;5094027;28;20024;-70
2021/01/21 03:27:01;;;;;;;47.17;25.40;;;;;;;;;;5094298;28;20012;-73
2021/01/21 03:29:27;;;;;;;60.42;37.33;;;;;;;;;;5093792;28;20090;-70
2021/01/21 03:31:54;;;;;;;49.75;31.23;;;;;;;;;;5092482;28;20473;-73
2021/01/21 03:34:20;;;;;;;57.10;34.38;;;;;;;;;;5093981;28;20024;-71
2021/01/21 03:36:46;;;;;;;34.90;19.02;;;;;;;;;;5092751;28;20085;-68
2021/01/21 03:39:13;;;;;;;33.35;18.13;;;;;;;;;;5093615;28;20031;-70
2021/01/21 03:41:39;;;;;;;54.30;31.63;;;;;;;;;;5094083;28;20027;-70
2021/01/21 03:44:05;;;;;;;56.45;35.20;;;;;;;;;;5094311;28;20046;-69
2021/01/21 03:46:31;;;;;;;54.50;29.67;;;;;;;;;;5093771;28;20020;-70
2021/01/21 03:48:57;;;;;;;47.17;25.48;;;;;;;;;;5095416;28;20031;-71
2021/01/21 03:51:23;;;;;;;28.50;16.98;;;;;;;;;;5094767;28;20020;-70
2021/01/21 03:53:49;;;;;;;33.80;19.65;;;;;;;;;;5095515;28;20016;-71
2021/01/21 03:56:16;;;;;;;38.90;22.50;;;;;;;;;;5096431;28;20428;-72
2021/01/21 03:58:42;;;;;;;37.70;20.48;;;;;;;;;;5095283;28;20012;-72
2021/01/21 04:01:08;;;;;;;34.50;17.25;;;;;;;;;;5096396;28;20028;-69
2021/01/21 04:03:34;;;;;;;29.27;15.95;;;;;;;;;;5096464;28;20032;-68
2021/01/21 04:06:00;;;;;;;34.42;18.88;;;;;;;;;;5094384;28;20123;-70
2021/01/21 04:08:27;;;;;;;33.28;19.80;;;;;;;;;;5093968;28;20055;-71
2021/01/21 04:10:54;;;;;;;45.15;22.67;;;;;;;;;;5097465;28;20073;-70
2021/01/21 04:13:20;;;;;;;44.30;21.95;;;;;;;;;;5097882;28;20020;-68
2021/01/21 04:15:46;;;;;;;37.88;17.80;;;;;;;;;;5096227;28;20024;-67
2021/01/21 04:18:15;;;;;;;37.75;20.67;;;;;;;;;;5096472;28;20024;-68
2021/01/21 04:20:42;;;;;;;36.92;20.65;;;;;;;;;;5097256;28;20399;-70
2021/01/21 04:23:08;;;;;;;38.50;19.63;;;;;;;;;;5096393;28;20078;-72
2021/01/21 04:25:34;;;;;;;37.38;20.77;;;;;;;;;;5097305;28;20483;-70
2021/01/21 04:28:00;;;;;;;38.45;20.88;;;;;;;;;;5096661;28;20107;-71
2021/01/21 04:30:27;;;;;;;48.28;25.00;;;;;;;;;;5097276;28;20195;-70
2021/01/21 04:32:53;;;;;;;35.03;19.88;;;;;;;;;;5097217;28;20523;-68
2021/01/21 04:35:19;;;;;;;30.63;15.38;;;;;;;;;;5095528;28;20078;-69
2021/01/21 04:37:45;;;;;;;31.52;18.23;;;;;;;;;;5094861;28;20024;-68
2021/01/21 04:40:12;;;;;;;32.00;17.92;;;;;;;;;;5097240;28;20020;-67
2021/01/21 04:42:38;;;;;;;34.22;18.65;;;;;;;;;;5096570;28;20091;-71
2021/01/21 04:45:05;;;;;;;36.15;20.00;;;;;;;;;;5095505;28;20228;-71
2021/01/21 04:47:31;;;;;;;31.02;17.00;;;;;;;;;;5096338;28;20024;-70
2021/01/21 04:49:57;;;;;;;32.70;18.20;;;;;;;;;;5095720;28;20103;-68
2021/01/21 04:52:25;;;;;;;40.53;20.17;;;;;;;;;;5095873;28;20020;-68
2021/01/21 04:54:58;;;;;;;36.75;20.40;;;;;;;;;;5095044;28;20024;-71
2021/01/21 04:57:27;;;;;;;42.28;22.20;;;;;;;;;;5095599;28;20023;-70
2021/01/21 04:59:54;;;;;;;38.00;21.33;;;;;;;;;;5096931;28;20095;-72
2021/01/21 05:02:22;;;;;;;38.83;21.58;;;;;;;;;;5096071;28;20031;-71
2021/01/21 05:04:48;;;;;;;41.92;22.08;;;;;;;;;;5095519;28;20024;-71
2021/01/21 05:07:14;;;;;;;41.55;22.30;;;;;;;;;;5095224;28;20016;-71
2021/01/21 05:09:40;;;;;;;40.35;20.55;;;;;;;;;;5094813;28;20488;-72
2021/01/21 05:12:07;;;;;;;42.65;21.33;;;;;;;;;;5096634;28;20024;-71
2021/01/21 05:14:33;;;;;;;36.90;21.20;;;;;;;;;;5095310;28;20074;-70
2021/01/21 05:16:59;;;;;;;43.72;23.77;;;;;;;;;;5093916;28;20388;-71
2021/01/21 05:19:26;;;;;;;45.65;23.90;;;;;;;;;;5094939;28;20040;-72
2021/01/21 05:21:52;;;;;;;42.15;24.38;;;;;;;;;;5092286;28;20012;-71
2021/01/21 05:24:18;;;;;;;36.05;21.65;;;;;;;;;;5093039;28;20047;-71
2021/01/21 05:26:44;;;;;;;37.95;21.67;;;;;;;;;;5092923;28;20457;-71
2021/01/21 05:29:11;;;;;;;41.13;21.58;;;;;;;;;;5094881;28;20032;-71
2021/01/21 05:31:38;;;;;;;35.63;20.00;;;;;;;;;;5093284;28;20412;-72
2021/01/21 05:34:11;;;;;;;39.05;20.05;;;;;;;;;;5095731;28;20664;-70
2021/01/21 05:36:41;;;;;;;38.03;20.05;;;;;;;;;;5094157;28;20519;-71
2021/01/21 05:39:08;;;;;;;35.03;18.60;;;;;;;;;;5095494;28;20031;-72
2021/01/21 05:41:34;;;;;;;42.30;19.60;;;;;;;;;;5094878;28;20111;-71
2021/01/21 05:44:05;;;;;;;36.38;21.95;;;;;;;;;;5094528;28;20031;-71
2021/01/21 05:46:35;;;;;;;40.72;21.20;;;;;;;;;;5094794;28;20427;-70
2021/01/21 05:49:01;;;;;;;39.70;21.75;;;;;;;;;;5095529;28;20534;-71
2021/01/21 05:51:28;;;;;;;42.72;21.90;;;;;;;;;;5094507;28;20376;-71
2021/01/21 05:53:55;;;;;;;47.45;23.77;;;;;;;;;;5095738;28;20026;-71
2021/01/21 05:56:22;;;;;;;47.67;24.27;;;;;;;;;;5094305;28;20043;-73
2021/01/21 05:58:55;;;;;;;43.83;25.30;;;;;;;;;;5094204;28;20024;-73
2021/01/21 06:01:24;;;;;;;40.63;22.05;;;;;;;;;;5095231;28;20016;-72
2021/01/21 06:03:50;;;;;;;56.83;32.45;;;;;;;;;;5094238;28;20468;-71
2021/01/21 06:06:16;;;;;;;50.50;28.67;;;;;;;;;;5095475;28;20022;-71
2021/01/21 06:08:43;;;;;;;36.92;21.80;;;;;;;;;;5094338;28;20023;-71
2021/01/21 06:11:09;;;;;;;44.63;23.00;;;;;;;;;;5095835;28;20023;-72
2021/01/21 06:13:42;;;;;;;44.50;22.75;;;;;;;;;;5093824;28;20064;-72
2021/01/21 06:16:09;;;;;;;46.35;25.70;;;;;;;;;;5095470;28;20043;-71
2021/01/21 06:18:35;;;;;;;52.65;27.13;;;;;;;;;;5093562;28;20059;-71
2021/01/21 06:21:02;;;;;;;95.45;45.65;;;;;;;;;;5093790;28;20016;-73
2021/01/21 06:23:30;;;;;;;65.38;33.83;;;;;;;;;;5093859;28;20499;-72
2021/01/21 06:25:57;;;;;;;195.18;94.20;;;;;;;;;;5094981;28;20016;-72
2021/01/21 06:28:25;;;;;;;91.95;51.45;;;;;;;;;;5095225;28;20012;-71
2021/01/21 06:30:52;;;;;;;48.78;27.73;;;;;;;;;;5093374;28;20051;-71
2021/01/21 06:33:20;;;;;;;42.90;23.15;;;;;;;;;;5093650;28;20016;-71
2021/01/21 06:35:58;;;;;;;57.45;28.83;;;;;;;;;;5094013;28;20346;-70
2021/01/21 06:38:24;;;;;;;;;;;;;;;;;;5094859;28;20038;-72
2021/01/21 06:40:53;;;;;;;74.32;45.00;;;;;;;;;;5094710;28;20405;-71
2021/01/21 06:43:24;;;;;;;52.80;32.72;;;;;;;;;;5094407;28;20059;-71
2021/01/21 06:45:50;;;;;;;61.63;36.10;;;;;;;;;;5095027;28;20051;-71
2021/01/21 06:48:17;;;;;;;38.05;21.85;;;;;;;;;;5093432;28;20368;-72
2021/01/21 06:50:44;;;;;;;81.38;49.50;;;;;;;;;;5093254;28;20028;-73
2021/01/21 06:53:10;;;;;;;74.10;43.50;;;;;;;;;;5093162;28;20024;-70
2021/01/21 06:55:38;;;;;;;54.42;36.25;;;;;;;;;;5092838;28;20039;-70
2021/01/21 06:58:05;;;;;;;52.90;31.08;;;;;;;;;;5094986;28;20012;-68
2021/01/21 07:00:34;;;;;;;83.60;44.42;;;;;;;;;;5094324;28;20103;-67
2021/01/21 07:03:00;;;;;;;85.72;46.00;;;;;;;;;;5094546;28;20020;-67
2021/01/21 07:05:27;;;;;;;71.38;36.45;;;;;;;;;;5095373;28;20340;-68
2021/01/21 07:07:56;;;;;;;81.13;39.08;;;;;;;;;;5094012;28;20028;-71
2021/01/21 07:10:32;;;;;;;61.15;33.53;;;;;;;;;;5094039;28;20020;-69
2021/01/21 07:13:00;;;;;;;100.60;48.78;;;;;;;;;;5093126;28;20027;-69
2021/01/21 07:15:30;;;;;;;41.28;21.70;;;;;;;;;;5094120;28;20081;-69
2021/01/21 07:18:03;;;;;;;64.30;31.92;;;;;;;;;;5093702;28;20024;-69
2021/01/21 07:20:31;;;;;;;44.08;26.17;;;;;;;;;;5093676;28;20387;-69
2021/01/21 07:22:57;;;;;;;;;;;;;;;;;;5094456;28;20486;-68
2021/01/21 07:25:27;;;;;;;46.60;26.02;;;;;;;;;;5094307;28;19990;-70
2021/01/21 07:27:54;;;;;;;55.42;34.30;;;;;;;;;;5093364;28;20119;-69
2021/01/21 07:30:25;;;;;;;47.13;25.45;;;;;;;;;;5093519;28;20069;-68
2021/01/21 07:33:10;;;;;;;47.35;26.80;;;;;;;;;;5094436;28;20044;-66
2021/01/21 07:35:39;;;;;;;50.78;31.67;;;;;;;;;;5093232;28;20016;-69
2021/01/21 07:38:06;;;;;;;47.15;25.77;;;;;;;;;;5092663;28;20027;-68
2021/01/21 07:40:42;;;;;;;46.03;25.77;;;;;;;;;;5092814;28;20104;-72
2021/01/21 07:43:08;;;;;;;44.63;25.27;;;;;;;;;;5093928;28;20020;-72
2021/01/21 07:45:35;;;;;;;41.30;22.98;;;;;;;;;;5092189;28;20022;-74
2021/01/21 07:48:21;;;;;;;41.53;22.23;;;;;;;;;;5094211;28;20024;-71
2021/01/21 07:50:48;;;;;;;55.55;26.13;;;;;;;;;;5093392;28;20024;-70
2021/01/21 07:53:32;;;;;;;53.55;27.05;;;;;;;;;;5092343;28;20028;-71
2021/01/21 07:56:04;;;;;;;49.03;28.90;;;;;;;;;;5093564;28;20055;-73
2021/01/21 07:58:35;;;;;;;55.55;32.25;;;;;;;;;;5093695;28;20016;-70
2021/01/21 08:01:05;;;;;;;51.97;31.42;;;;;;;;;;5094184;28;20040;-66
2021/01/21 08:03:35;;;;;;;59.53;28.60;;;;;;;;;;5094423;28;20020;-69
2021/01/21 08:06:07;;;;;;;53.90;30.80;;;;;;;;;;5091476;28;20069;-67
2021/01/21 08:08:33;;;;;;;54.88;34.03;;;;;;;;;;5090418;28;20017;-67
2021/01/21 08:11:04;;;;;;;48.95;28.40;;;;;;;;;;5092354;28;20583;-68
2021/01/21 08:13:31;;;;;;;47.83;27.65;;;;;;;;;;5105777;28;20055;-67
2021/01/21 08:15:57;;;;;;;60.30;31.65;;;;;;;;;;5092768;28;20405;-67
2021/01/21 08:18:24;;;;;;;76.03;43.03;;;;;;;;;;5092240;28;20031;-68
2021/01/21 08:20:50;;;;;;;52.85;28.83;;;;;;;;;;5091428;28;20031;-67
2021/01/21 08:23:16;;;;;;;51.38;27.90;;;;;;;;;;5092313;28;20019;-67
2021/01/21 08:25:44;;;;;;;40.80;23.33;;;;;;;;;;5091845;28;20020;-68
2021/01/21 08:28:10;;;;;;;;;;;;;;;;;;5089776;28;20177;-68
2021/01/21 08:30:36;;;;;;;37.80;22.15;;;;;;;;;;5086839;28;20391;-67
2021/01/21 08:33:08;;;;;;;37.47;23.60;;;;;;;;;;5091415;28;20032;-67
2021/01/21 08:35:39;;;;;;;33.22;19.27;;;;;;;;;;5091963;28;20027;-68
2021/01/21 08:38:06;;;;;;;37.97;22.50;;;;;;;;;;5091897;28;20092;-69
2021/01/21 08:40:32;;;;;;;39.53;24.05;;;;;;;;;;5091680;28;20133;-69
2021/01/21 08:42:59;;;;;;;41.47;23.83;;;;;;;;;;5090793;28;20031;-64
2021/01/21 08:45:29;;;;;;;51.03;29.63;;;;;;;;;;5091373;28;20035;-66
2021/01/21 08:47:56;;;;;;;49.08;26.95;;;;;;;;;;5091843;28;20024;-67
2021/01/21 08:50:22;;;;;;;61.47;32.00;;;;;;;;;;5091506;28;20027;-67
2021/01/21 08:52:55;;;;;;;53.65;28.10;;;;;;;;;;5091484;28;20026;-67
2021/01/21 08:55:21;;;;;;;43.85;24.63;;;;;;;;;;5090515;28;20150;-66
2021/01/21 08:58:07;;;;;;;36.22;21.50;;;;;;;;;;5093708;28;20077;-67
2021/01/21 09:00:34;;;;;;;40.30;23.23;;;;;;;;;;5092696;28;20087;-66
2021/01/21 09:03:01;;;;;;;41.15;23.95;;;;;;;;;;5096381;28;20031;-69
2021/01/21 09:05:27;;;;;;;40.25;24.75;;;;;;;;;;5096681;28;20092;-67
2021/01/21 09:08:01;;;;;;;42.10;25.90;;;;;;;;;;5095108;28;20044;-66
2021/01/21 09:10:35;;;;;;;48.35;30.77;;;;;;;;;;5096827;28;20025;-66
2021/01/21 09:13:02;;;;;;;31.20;17.80;;;;;;;;;;5096339;28;20032;-66
2021/01/21 09:15:28;;;;;;;41.10;22.25;;;;;;;;;;5094997;28;20413;-66
2021/01/21 09:18:06;;;;;;;42.90;26.88;;;;;;;;;;5096193;28;20375;-66
2021/01/21 09:20:32;;;;;;;28.52;16.92;;;;;;;;;;5095609;28;20042;-69
2021/01/21 09:23:12;;;;;;;30.55;15.93;;;;;;;;;;5095260;28;20531;-66
2021/01/21 09:25:38;;;;;;;57.45;28.52;;;;;;;;;;5095956;28;20023;-67
2021/01/21 09:28:04;;;;;;;46.97;26.65;;;;;;;;;;5095854;28;20051;-66
2021/01/21 09:30:30;;;;;;;40.60;25.25;;;;;;;;;;5096084;28;20478;-68
2021/01/21 09:32:56;;;;;;;36.17;21.00;;;;;;;;;;5096031;28;20032;-66
2021/01/21 09:35:23;;;;;;;42.30;25.33;;;;;;;;;;5095976;28;20518;-66
2021/01/21 09:37:50;;;;;;;30.35;19.95;;;;;;;;;;5094446;28;20437;-67
2021/01/21 09:40:19;;;;;;;43.83;27.08;;;;;;;;;;5096626;28;20330;-68
2021/01/21 09:42:45;;;;;;;29.38;18.58;;;;;;;;;;5095301;28;20035;-66
2021/01/21 09:45:12;;;;;;;37.75;22.52;;;;;;;;;;5095698;28;20024;-67
2021/01/21 09:47:38;;;;;;;27.15;17.42;;;;;;;;;;5095069;28;20032;-67
2021/01/21 09:50:05;;;;;;;37.75;22.17;;;;;;;;;;5110341;28;20485;-68
2021/01/21 09:52:32;;;;;;;46.63;23.55;;;;;;;;;;5105681;28;20032;-68
2021/01/21 09:54:58;;;;;;;31.63;19.83;;;;;;;;;;5074447;28;20385;-67
2021/01/21 09:57:25;;;;;;;30.67;17.45;;;;;;;;;;5086731;28;20031;-68
2021/01/21 09:59:51;;;;;;;30.73;17.58;;;;;;;;;;5095066;28;20017;-67
2021/01/21 10:02:17;;;;;;;36.28;18.80;;;;;;;;;;5095337;28;20028;-68
2021/01/21 10:04:43;;;;;;;37.72;20.20;;;;;;;;;;5094397;28;20405;-68
2021/01/21 10:07:10;;;;;;;37.65;24.23;;;;;;;;;;5095537;28;20054;-69
2021/01/21 10:09:36;;;;;;;47.70;24.38;;;;;;;;;;5094167;28;20022;-67
2021/01/21 10:12:03;;;;;;;58.97;27.65;;;;;;;;;;5095146;28;20069;-68
2021/01/21 10:14:29;;;;;;;45.35;23.63;;;;;;;;;;5093933;28;20027;-68
2021/01/21 10:16:55;;;;;;;52.17;25.55;;;;;;;;;;5095164;28;20051;-66
2021/01/21 10:19:21;;;;;;;43.20;22.77;;;;;;;;;;5095052;28;20016;-67
2021/01/21 10:21:47;;;;;;;50.92;27.67;;;;;;;;;;5094043;28;20020;-67
2021/01/21 10:24:13;;;;;;;32.35;19.42;;;;;;;;;;5094683;28;20036;-68
2021/01/21 10:26:40;;;;;;;32.35;16.75;;;;;;;;;;5094650;28;20016;-67
2021/01/21 10:29:06;;;;;;;31.90;17.92;;;;;;;;;;5093603;28;20469;-70
2021/01/21 10:31:33;;;;;;;34.70;19.08;;;;;;;;;;5092964;28;20125;-69
2021/01/21 10:33:59;;;;;;;25.88;15.43;;;;;;;;;;5074588;28;20031;-68
2021/01/21 10:36:25;;;;;;;30.75;17.05;;;;;;;;;;5088000;28;20021;-70
2021/01/21 10:38:51;;;;;;;29.77;17.30;;;;;;;;;;5094387;28;20024;-70
2021/01/21 10:41:18;;;;;;;34.60;18.75;;;;;;;;;;5093623;28;20020;-69
2021/01/21 10:43:44;;;;;;;37.00;20.40;;;;;;;;;;5094418;28;20027;-69
2021/01/21 10:46:10;;;;;;;35.50;21.05;;;;;;;;;;5093823;28;20101;-69
2021/01/21 10:48:36;;;;;;;33.13;19.33;;;;;;;;;;5093261;28;20027;-71
2021/01/21 10:51:02;;;;;;;28.35;17.42;;;;;;;;;;5094718;28;20089;-67
2021/01/21 10:53:28;;;;;;;32.22;17.63;;;;;;;;;;5094154;28;20059;-66
2021/01/21 10:55:54;;;;;;;35.22;16.80;;;;;;;;;;5094141;28;20134;-67
2021/01/21 10:58:20;;;;;;;27.15;14.35;;;;;;;;;;5094154;28;20020;-67
2021/01/21 11:00:47;;;;;;;21.15;13.43;;;;;;;;;;5091868;28;20092;-67
2021/01/21 11:03:14;;;;;;;27.38;16.05;;;;;;;;;;5092731;28;20020;-67
2021/01/21 11:05:41;;;;;;;23.90;14.77;;;;;;;;;;5092578;28;20020;-67
2021/01/21 11:08:07;;;;;;;22.48;13.10;;;;;;;;;;5093080;28;20233;-67
2021/01/21 11:10:34;;;;;;;27.67;15.20;;;;;;;;;;5092650;28;20004;-67
2021/01/21 11:13:01;;;;;;;27.00;13.73;;;;;;;;;;5089803;28;20020;-67
2021/01/21 11:15:27;;;;;;;23.17;13.30;;;;;;;;;;5092554;28;20016;-67
2021/01/21 11:17:53;;;;;;;21.38;12.40;;;;;;;;;;5091566;28;20027;-66
2021/01/21 11:20:19;;;;;;;17.70;10.45;;;;;;;;;;5089081;28;20047;-67
2021/01/21 11:22:45;;;;;;;22.08;11.85;;;;;;;;;;5092400;28;20024;-68
2021/01/21 11:25:12;;;;;;;21.35;12.88;;;;;;;;;;5092394;28;20027;-67
2021/01/21 11:27:38;;;;;;;22.02;12.75;;;;;;;;;;5092175;28;20012;-66
2021/01/21 11:30:09;;;;;;;20.98;12.65;;;;;;;;;;5092690;28;20020;-67
2021/01/21 11:32:35;;;;;;;24.70;13.95;;;;;;;;;;5093275;28;20114;-68
2021/01/21 11:35:01;;;;;;;29.55;17.25;;;;;;;;;;5093215;28;20016;-68
2021/01/21 11:37:28;;;;;;;31.02;19.45;;;;;;;;;;5093668;28;20023;-68
2021/01/21 11:39:54;;;;;;;24.70;14.20;;;;;;;;;;5093689;28;20152;-67
2021/01/21 11:42:20;;;;;;;31.60;18.80;;;;;;;;;;5093240;28;20016;-67
2021/01/21 11:44:47;;;;;;;27.55;16.45;;;;;;;;;;5093629;28;20020;-67
2021/01/21 11:47:13;;;;;;;25.88;14.77;;;;;;;;;;5091983;28;20023;-68
2021/01/21 11:49:39;;;;;;;25.88;14.02;;;;;;;;;;5090791;28;20095;-70
2021/01/21 11:52:05;;;;;;;25.75;14.50;;;;;;;;;;5093464;28;20044;-67
2021/01/21 11:54:31;;;;;;;24.35;16.45;;;;;;;;;;5092603;28;20035;-67
2021/01/21 11:56:57;;;;;;;27.17;16.20;;;;;;;;;;5092390;28;20024;-66
2021/01/21 11:59:24;;;;;;;53.85;29.13;;;;;;;;;;5093767;28;20016;-67
2021/01/21 12:01:50;;;;;;;15.90;8.90;;;;;;;;;;5090804;28;20020;-67
2021/01/21 12:04:16;;;;;;;17.35;9.02;;;;;;;;;;5092113;28;20028;-68
2021/01/21 12:06:43;;;;;;;22.45;13.10;;;;;;;;;;5090653;28;20016;-68
2021/01/21 12:09:09;;;;;;;43.53;21.73;;;;;;;;;;5090785;28;20031;-70
2021/01/21 12:11:35;;;;;;;63.47;32.67;;;;;;;;;;5091813;28;20023;-67
2021/01/21 12:14:02;;;;;;;31.20;17.10;;;;;;;;;;5091097;28;20109;-68
2021/01/21 12:16:28;;;;;;;17.27;12.90;;;;;;;;;;5091355;28;20023;-68
2021/01/21 12:18:55;;;;;;;18.60;12.98;;;;;;;;;;5090950;28;20015;-68
2021/01/21 12:21:24;;;;;;;18.20;11.20;;;;;;;;;;5091938;28;20023;-69
2021/01/21 12:23:50;;;;;;;19.83;10.43;;;;;;;;;;5092143;28;20475;-68
2021/01/21 12:26:16;;;;;;;15.80;9.35;;;;;;;;;;5091943;28;20098;-68
2021/01/21 12:28:43;;;;;;;17.38;9.90;;;;;;;;;;5093196;28;20016;-69
2021/01/21 12:31:09;;;;;;;18.23;10.18;;;;;;;;;;5093557;28;20064;-66
2021/01/21 12:33:35;;;;;;;14.93;9.23;;;;;;;;;;5096088;28;20051;-71
2021/01/21 12:36:02;;;;;;;13.15;8.20;;;;;;;;;;5096089;28;20012;-66
2021/01/21 12:38:36;;;;;;;17.75;9.07;;;;;;;;;;5095870;28;20032;-71
2021/01/21 12:41:04;;;;;;;17.67;10.70;;;;;;;;;;5094611;28;20027;-70
2021/01/21 12:43:30;;;;;;;23.58;13.68;;;;;;;;;;5095169;28;20020;-67
2021/01/21 12:45:56;;;;;;;22.52;10.85;;;;;;;;;;5095796;28;20047;-67
2021/01/21 12:48:23;;;;;;;18.50;10.98;;;;;;;;;;5095867;28;20012;-67
2021/01/21 12:50:49;;;;;;;34.05;16.17;;;;;;;;;;5093926;28;20108;-68
2021/01/21 12:53:16;;;;;;;26.55;13.48;;;;;;;;;;5095710;28;20080;-69
2021/01/21 12:55:42;;;;;;;31.35;15.35;;;;;;;;;;5093356;28;20008;-68
2021/01/21 12:58:08;;;;;;;25.40;14.40;;;;;;;;;;5094604;28;20464;-71
2021/01/21 13:00:34;;;;;;;20.13;12.35;;;;;;;;;;5095284;28;20030;-67
2021/01/21 13:03:00;;;;;;;27.25;15.73;;;;;;;;;;5094373;28;20016;-68
2021/01/21 13:05:26;;;;;;;36.60;16.33;;;;;;;;;;5093402;28;20016;-70
2021/01/21 13:07:52;;;;;;;25.17;14.02;;;;;;;;;;5093926;28;20052;-69
2021/01/21 13:10:19;;;;;;;21.58;10.63;;;;;;;;;;5094902;28;20040;-67
2021/01/21 13:12:45;;;;;;;27.17;11.98;;;;;;;;;;5095205;28;20068;-70
2021/01/21 13:15:11;;;;;;;21.45;11.95;;;;;;;;;;5095417;28;20027;-69
2021/01/21 13:17:38;;;;;;;54.25;29.85;;;;;;;;;;5094891;28;20691;-70
2021/01/21 13:20:06;;;;;;;29.55;20.48;;;;;;;;;;5094961;28;20047;-69
2021/01/21 13:22:32;;;;;;;29.50;14.77;;;;;;;;;;5093888;28;20024;-68
2021/01/21 13:24:58;;;;;;;37.58;18.23;;;;;;;;;;5093458;28;20024;-68
2021/01/21 13:27:24;;;;;;;79.72;44.50;;;;;;;;;;5094721;28;20077;-70
2021/01/21 13:29:50;;;;;;;32.47;20.27;;;;;;;;;;5094578;28;20016;-70
2021/01/21 13:32:16;;;;;;;24.25;13.00;;;;;;;;;;5094588;28;20093;-66
2021/01/21 13:34:42;;;;;;;27.58;17.42;;;;;;;;;;5090341;28;20022;-67
2021/01/21 13:37:09;;;;;;;26.85;17.23;;;;;;;;;;5094592;28;20469;-67
2021/01/21 13:39:35;;;;;;;26.10;15.43;;;;;;;;;;5094457;28;20069;-67
2021/01/21 13:42:01;;;;;;;34.58;19.60;;;;;;;;;;5093896;28;20020;-68
2021/01/21 13:44:27;;;;;;;26.55;13.45;;;;;;;;;;5093833;28;20015;-67
2021/01/21 13:46:54;;;;;;;53.85;21.92;;;;;;;;;;5095771;28;20023;-68
2021/01/21 13:49:20;;;;;;;43.67;19.15;;;;;;;;;;5094144;28;20016;-68
2021/01/21 13:51:46;;;;;;;43.67;19.45;;;;;;;;;;5094159;28;20107;-69
2021/01/21 13:54:12;;;;;;;38.05;19.55;;;;;;;;;;5092932;28;20024;-67
2021/01/21 13:56:38;;;;;;;32.28;19.83;;;;;;;;;;5094099;28;20024;-67
2021/01/21 13:59:04;;;;;;;33.40;17.67;;;;;;;;;;5094207;28;20020;-68
2021/01/21 14:01:33;;;;;;;30.58;16.33;;;;;;;;;;5093803;28;20016;-67
2021/01/21 14:03:59;;;;;;;23.83;13.95;;;;;;;;;;5095615;28;20052;-66
2021/01/21 14:06:25;;;;;;;30.75;16.48;;;;;;;;;;5094981;28;20027;-70
2021/01/21 14:08:51;;;;;;;36.67;19.52;;;;;;;;;;5093273;28;20028;-70
2021/01/21 14:11:17;;;;;;;27.50;15.38;;;;;;;;;;5095206;28;20016;-70
2021/01/21 14:13:43;;;;;;;24.50;12.63;;;;;;;;;;5094925;28;20024;-70
2021/01/21 14:16:12;;;;;;;22.55;13.32;;;;;;;;;;5094907;28;20529;-71
2021/01/21 14:18:38;;;;;;;23.45;12.18;;;;;;;;;;5093890;28;20024;-71